sensor_id;sensor_type;location;lat;lon;timestamp;pressure;altitude;pressure_sealevel;temperature;humidity
80511;BME280;69840;53.040;8.600;2023-06-19T00:01:18;101157.03;;;21.20;50.88
80511;BME280;69840;53.040;8.600;2023-06-19T00:05:31;101158.28;;;21.18;52.46
80511;BME280;69840;53.040;8.600;2023-06-19T00:09:43;101156.47;;;21.12;52.17
80511;BME280;69840;53.040;8.600;2023-06-19T00:13:56;101147.00;;;21.09;50.91
80511;BME280;69840;53.040;8.600;2023-06-19T00:18:09;101144.53;;;21.08;49.61
80511;BME280;69840;53.040;8.600;2023-06-19T00:22:22;101128.84;;;21.05;49.77
80511;BME280;69840;53.040;8.600;2023-06-19T00:26:35;101132.38;;;21.05;50.73
80511;BME280;69840;53.040;8.600;2023-06-19T00:30:48;101128.69;;;20.99;49.42
80511;BME280;69840;53.040;8.600;2023-06-19T00:35:01;101127.88;;;20.99;49.68
80511;BME280;69840;53.040;8.600;2023-06-19T00:39:14;101124.59;;;20.97;48.81
80511;BME280;69840;53.040;8.600;2023-06-19T00:43:26;101119.09;;;20.92;49.57
80511;BME280;69840;53.040;8.600;2023-06-19T00:47:39;101110.47;;;20.83;52.89
80511;BME280;69840;53.040;8.600;2023-06-19T00:51:52;101101.47;;;20.78;53.19
80511;BME280;69840;53.040;8.600;2023-06-19T00:56:05;101082.34;;;20.67;51.46
80511;BME280;69840;53.040;8.600;2023-06-19T01:00:18;101079.03;;;20.65;51.76
80511;BME280;69840;53.040;8.600;2023-06-19T01:04:31;101083.59;;;20.65;50.60
80511;BME280;69840;53.040;8.600;2023-06-19T01:08:51;101093.50;;;20.64;51.71
80511;BME280;69840;53.040;8.600;2023-06-19T01:17:55;101092.47;;;20.65;52.89
80511;BME280;69840;53.040;8.600;2023-06-19T01:22:08;101093.72;;;20.63;51.18
80511;BME280;69840;53.040;8.600;2023-06-19T01:26:23;101091.06;;;20.63;50.04
80511;BME280;69840;53.040;8.600;2023-06-19T01:30:37;101066.31;;;20.61;51.05
80511;BME280;69840;53.040;8.600;2023-06-19T01:34:52;101065.09;;;20.57;51.90
80511;BME280;69840;53.040;8.600;2023-06-19T01:39:07;101057.63;;;20.59;50.30
80511;BME280;69840;53.040;8.600;2023-06-19T01:43:21;101050.19;;;20.61;50.10
80511;BME280;69840;53.040;8.600;2023-06-19T01:47:36;101053.00;;;20.66;50.43
80511;BME280;69840;53.040;8.600;2023-06-19T01:51:49;101039.56;;;20.66;49.82
80511;BME280;69840;53.040;8.600;2023-06-19T01:56:02;101048.84;;;20.70;49.32
80511;BME280;69840;53.040;8.600;2023-06-19T02:00:15;101042.56;;;20.76;48.84
80511;BME280;69840;53.040;8.600;2023-06-19T02:04:28;101038.03;;;20.77;49.71
80511;BME280;69840;53.040;8.600;2023-06-19T02:08:41;101041.97;;;20.74;49.50
80511;BME280;69840;53.040;8.600;2023-06-19T02:12:56;101033.09;;;20.74;51.24
80511;BME280;69840;53.040;8.600;2023-06-19T02:17:09;101032.72;;;20.70;50.43
80511;BME280;69840;53.040;8.600;2023-06-19T02:21:22;101034.34;;;20.71;49.03
80511;BME280;69840;53.040;8.600;2023-06-19T02:25:36;101029.44;;;20.68;50.77
80511;BME280;69840;53.040;8.600;2023-06-19T02:29:49;101035.25;;;20.65;50.28
80511;BME280;69840;53.040;8.600;2023-06-19T02:34:03;101039.72;;;20.71;48.25
80511;BME280;69840;53.040;8.600;2023-06-19T02:38:16;101026.97;;;20.66;51.08
80511;BME280;69840;53.040;8.600;2023-06-19T02:42:29;101024.50;;;20.65;50.70
80511;BME280;69840;53.040;8.600;2023-06-19T02:46:41;101023.53;;;20.59;50.97
80511;BME280;69840;53.040;8.600;2023-06-19T02:50:54;101017.94;;;20.61;49.96
80511;BME280;69840;53.040;8.600;2023-06-19T02:55:07;101025.19;;;20.60;51.46
80511;BME280;69840;53.040;8.600;2023-06-19T02:59:20;101023.06;;;20.62;51.22
80511;BME280;69840;53.040;8.600;2023-06-19T03:03:35;101027.28;;;20.58;52.44
80511;BME280;69840;53.040;8.600;2023-06-19T03:07:48;101025.03;;;20.55;50.81
80511;BME280;69840;53.040;8.600;2023-06-19T03:12:01;101022.56;;;20.54;51.07
80511;BME280;69840;53.040;8.600;2023-06-19T03:16:14;101036.00;;;20.54;52.32
80511;BME280;69840;53.040;8.600;2023-06-19T03:20:27;101029.63;;;20.48;52.79
80511;BME280;69840;53.040;8.600;2023-06-19T03:24:42;101040.38;;;20.48;52.87
80511;BME280;69840;53.040;8.600;2023-06-19T03:29:03;101027.94;;;20.54;54.95
80511;BME280;69840;53.040;8.600;2023-06-19T03:33:35;101034.19;;;20.48;59.66
80511;BME280;69840;53.040;8.600;2023-06-19T03:37:49;101042.31;;;20.41;55.76
80511;BME280;69840;53.040;8.600;2023-06-19T03:42:02;101043.38;;;20.33;54.67
80511;BME280;69840;53.040;8.600;2023-06-19T03:46:15;101040.09;;;20.31;54.24
80511;BME280;69840;53.040;8.600;2023-06-19T03:50:28;101042.66;;;20.26;54.87
80511;BME280;69840;53.040;8.600;2023-06-19T03:54:41;101047.19;;;20.26;56.34
80511;BME280;69840;53.040;8.600;2023-06-19T03:58:54;101049.06;;;20.25;55.46
80511;BME280;69840;53.040;8.600;2023-06-19T04:03:07;101045.13;;;20.28;57.05
80511;BME280;69840;53.040;8.600;2023-06-19T04:07:19;101056.69;;;20.28;53.46
80511;BME280;69840;53.040;8.600;2023-06-19T04:11:32;101051.66;;;20.32;55.10
80511;BME280;69840;53.040;8.600;2023-06-19T04:15:47;101054.94;;;20.34;56.53
80511;BME280;69840;53.040;8.600;2023-06-19T04:20:01;101052.25;;;20.34;57.93
80511;BME280;69840;53.040;8.600;2023-06-19T04:24:14;101050.84;;;20.31;54.98
80511;BME280;69840;53.040;8.600;2023-06-19T04:28:27;101061.56;;;20.31;57.58
80511;BME280;69840;53.040;8.600;2023-06-19T04:32:40;101056.00;;;20.33;55.32
80511;BME280;69840;53.040;8.600;2023-06-19T04:36:53;101052.13;;;20.29;61.65
80511;BME280;69840;53.040;8.600;2023-06-19T04:41:06;101052.56;;;20.26;61.34
80511;BME280;69840;53.040;8.600;2023-06-19T04:45:19;101054.69;;;20.17;58.28
80511;BME280;69840;53.040;8.600;2023-06-19T04:49:32;101052.19;;;20.22;62.45
80511;BME280;69840;53.040;8.600;2023-06-19T04:53:45;101050.25;;;20.29;60.81
80511;BME280;69840;53.040;8.600;2023-06-19T04:57:57;101049.13;;;20.44;60.19
80511;BME280;69840;53.040;8.600;2023-06-19T05:02:10;101043.16;;;20.60;62.30
80511;BME280;69840;53.040;8.600;2023-06-19T05:06:24;101037.88;;;20.72;64.21
80511;BME280;69840;53.040;8.600;2023-06-19T05:10:37;101042.09;;;20.79;62.99
80511;BME280;69840;53.040;8.600;2023-06-19T05:14:49;101053.22;;;20.83;63.04
80511;BME280;69840;53.040;8.600;2023-06-19T05:19:02;101049.28;;;20.85;59.87
80511;BME280;69840;53.040;8.600;2023-06-19T05:23:15;101053.38;;;20.88;60.29
80511;BME280;69840;53.040;8.600;2023-06-19T05:27:28;101053.88;;;20.96;59.13
80511;BME280;69840;53.040;8.600;2023-06-19T05:31:41;101055.47;;;21.04;57.38
80511;BME280;69840;53.040;8.600;2023-06-19T05:35:54;101059.47;;;21.13;58.10
80511;BME280;69840;53.040;8.600;2023-06-19T05:40:07;101072.09;;;21.31;62.01
80511;BME280;69840;53.040;8.600;2023-06-19T05:44:20;101073.28;;;21.35;58.15
80511;BME280;69840;53.040;8.600;2023-06-19T05:48:33;101075.75;;;21.37;59.50
80511;BME280;69840;53.040;8.600;2023-06-19T05:52:46;101075.47;;;21.26;59.78
80511;BME280;69840;53.040;8.600;2023-06-19T05:56:58;101084.13;;;21.28;59.83
80511;BME280;69840;53.040;8.600;2023-06-19T06:01:11;101080.84;;;21.26;60.33
80511;BME280;69840;53.040;8.600;2023-06-19T06:05:24;101076.28;;;21.27;60.71
80511;BME280;69840;53.040;8.600;2023-06-19T06:09:37;101082.03;;;21.60;58.27
80511;BME280;69840;53.040;8.600;2023-06-19T06:13:49;101090.78;;;21.86;56.05
80511;BME280;69840;53.040;8.600;2023-06-19T06:18:02;101087.13;;;22.33;54.79
80511;BME280;69840;53.040;8.600;2023-06-19T06:22:15;101097.41;;;22.71;55.23
80511;BME280;69840;53.040;8.600;2023-06-19T06:26:28;101100.03;;;22.78;51.71
80511;BME280;69840;53.040;8.600;2023-06-19T06:30:41;101113.00;;;22.93;54.52
80511;BME280;69840;53.040;8.600;2023-06-19T06:34:54;101109.38;;;22.87;53.13
80511;BME280;69840;53.040;8.600;2023-06-19T06:39:07;101124.22;;;23.01;55.87
80511;BME280;69840;53.040;8.600;2023-06-19T06:43:21;101129.63;;;23.13;55.25
80511;BME280;69840;53.040;8.600;2023-06-19T06:47:34;101128.22;;;23.11;57.50
80511;BME280;69840;53.040;8.600;2023-06-19T06:51:47;101134.03;;;23.19;52.69
80511;BME280;69840;53.040;8.600;2023-06-19T06:56:00;101122.25;;;23.37;52.78
80511;BME280;69840;53.040;8.600;2023-06-19T07:00:13;101140.03;;;23.61;50.70
80511;BME280;69840;53.040;8.600;2023-06-19T07:04:26;101133.53;;;23.74;50.80
80511;BME280;69840;53.040;8.600;2023-06-19T07:08:39;101130.91;;;23.79;54.70
80511;BME280;69840;53.040;8.600;2023-06-19T07:12:52;101136.69;;;24.16;52.31
80511;BME280;69840;53.040;8.600;2023-06-19T07:17:05;101131.84;;;23.85;49.54
80511;BME280;69840;53.040;8.600;2023-06-19T07:21:18;101136.69;;;24.16;54.47
80511;BME280;69840;53.040;8.600;2023-06-19T07:25:31;101129.78;;;24.54;49.79
80511;BME280;69840;53.040;8.600;2023-06-19T07:29:44;101125.88;;;24.83;48.57
80511;BME280;69840;53.040;8.600;2023-06-19T07:33:57;101126.75;;;24.72;49.52
80511;BME280;69840;53.040;8.600;2023-06-19T07:38:09;101138.38;;;24.89;51.69
80511;BME280;69840;53.040;8.600;2023-06-19T07:42:22;101140.38;;;24.60;48.62
80511;BME280;69840;53.040;8.600;2023-06-19T07:46:35;101136.13;;;24.64;53.03
80511;BME280;69840;53.040;8.600;2023-06-19T07:50:48;101133.28;;;24.71;49.83
80511;BME280;69840;53.040;8.600;2023-06-19T07:55:01;101138.97;;;24.74;52.05
80511;BME280;69840;53.040;8.600;2023-06-19T07:59:14;101129.06;;;24.80;48.49
80511;BME280;69840;53.040;8.600;2023-06-19T08:03:27;101139.81;;;25.13;48.11
80511;BME280;69840;53.040;8.600;2023-06-19T08:07:40;101141.09;;;25.55;47.33
80511;BME280;69840;53.040;8.600;2023-06-19T08:11:53;101138.97;;;25.78;49.33
80511;BME280;69840;53.040;8.600;2023-06-19T08:16:06;101145.31;;;25.67;49.00
80511;BME280;69840;53.040;8.600;2023-06-19T08:20:18;101141.84;;;25.99;48.83
80511;BME280;69840;53.040;8.600;2023-06-19T08:24:31;101148.56;;;25.91;46.22
80511;BME280;69840;53.040;8.600;2023-06-19T08:28:44;101141.22;;;26.18;45.44
80511;BME280;69840;53.040;8.600;2023-06-19T08:32:57;101135.03;;;26.23;46.78
80511;BME280;69840;53.040;8.600;2023-06-19T08:37:10;101149.66;;;26.54;45.02
80511;BME280;69840;53.040;8.600;2023-06-19T08:41:22;101154.25;;;26.53;46.20
80511;BME280;69840;53.040;8.600;2023-06-19T08:45:35;101151.28;;;25.64;46.38
80511;BME280;69840;53.040;8.600;2023-06-19T08:49:49;101155.66;;;25.97;46.98
80511;BME280;69840;53.040;8.600;2023-06-19T08:54:03;101151.66;;;26.05;46.11
80511;BME280;69840;53.040;8.600;2023-06-19T08:58:21;101157.06;;;26.32;46.09
80511;BME280;69840;53.040;8.600;2023-06-19T09:02:44;101165.66;;;26.55;45.98
80511;BME280;69840;53.040;8.600;2023-06-19T09:07:02;101174.88;;;26.54;45.08
80511;BME280;69840;53.040;8.600;2023-06-19T09:11:57;101173.47;;;26.89;44.62
80511;BME280;69840;53.040;8.600;2023-06-19T09:16:10;101166.53;;;27.03;44.94
80511;BME280;69840;53.040;8.600;2023-06-19T09:20:27;101176.09;;;26.74;44.03
80511;BME280;69840;53.040;8.600;2023-06-19T09:24:41;101174.22;;;26.79;44.43
80511;BME280;69840;53.040;8.600;2023-06-19T09:28:53;101168.22;;;26.77;44.37
80511;BME280;69840;53.040;8.600;2023-06-19T09:33:06;101187.13;;;26.99;44.23
80511;BME280;69840;53.040;8.600;2023-06-19T09:41:36;101187.78;;;26.79;44.09
80511;BME280;69840;53.040;8.600;2023-06-19T09:45:50;101188.06;;;26.83;44.54
80511;BME280;69840;53.040;8.600;2023-06-19T09:50:06;101192.69;;;26.82;44.68
80511;BME280;69840;53.040;8.600;2023-06-19T09:54:20;101205.13;;;26.14;47.17
80511;BME280;69840;53.040;8.600;2023-06-19T09:58:32;101203.44;;;25.81;47.93
80511;BME280;69840;53.040;8.600;2023-06-19T10:02:46;101218.41;;;25.62;49.40
80511;BME280;69840;53.040;8.600;2023-06-19T10:07:00;101225.91;;;25.60;49.40
80511;BME280;69840;53.040;8.600;2023-06-19T10:11:13;101226.72;;;25.82;49.57
80511;BME280;69840;53.040;8.600;2023-06-19T10:15:28;101240.50;;;25.76;48.83
80511;BME280;69840;53.040;8.600;2023-06-19T10:19:49;101245.19;;;25.85;49.35
80511;BME280;69840;53.040;8.600;2023-06-19T10:24:02;101240.09;;;26.16;47.34
80511;BME280;69840;53.040;8.600;2023-06-19T10:28:18;101243.19;;;26.25;48.32
80511;BME280;69840;53.040;8.600;2023-06-19T10:32:32;101241.22;;;26.20;47.62
80511;BME280;69840;53.040;8.600;2023-06-19T10:36:45;101257.28;;;26.85;46.47
80511;BME280;69840;53.040;8.600;2023-06-19T10:40:57;101253.38;;;27.08;45.61
80511;BME280;69840;53.040;8.600;2023-06-19T10:45:13;101256.34;;;27.02;45.06
80511;BME280;69840;53.040;8.600;2023-06-19T10:49:26;101252.44;;;26.55;45.85
80511;BME280;69840;53.040;8.600;2023-06-19T10:53:39;101260.09;;;26.10;46.77
80511;BME280;69840;53.040;8.600;2023-06-19T10:57:51;101263.22;;;25.97;47.86
80511;BME280;69840;53.040;8.600;2023-06-19T11:02:04;101251.25;;;26.19;47.90
80511;BME280;69840;53.040;8.600;2023-06-19T11:06:20;101261.03;;;25.99;48.38
80511;BME280;69840;53.040;8.600;2023-06-19T11:10:33;101267.63;;;25.81;48.17
80511;BME280;69840;53.040;8.600;2023-06-19T11:14:47;101271.78;;;25.50;48.88
80511;BME280;69840;53.040;8.600;2023-06-19T11:19:01;101272.97;;;25.15;49.68
80511;BME280;69840;53.040;8.600;2023-06-19T11:23:14;101277.31;;;24.83;51.07
80511;BME280;69840;53.040;8.600;2023-06-19T11:27:27;101272.22;;;24.70;51.98
80511;BME280;69840;53.040;8.600;2023-06-19T11:31:45;101282.03;;;24.76;51.28
80511;BME280;69840;53.040;8.600;2023-06-19T11:36:01;101286.53;;;24.87;50.90
80511;BME280;69840;53.040;8.600;2023-06-19T11:40:15;101293.09;;;24.91;49.65
80511;BME280;69840;53.040;8.600;2023-06-19T11:44:28;101297.19;;;24.77;50.62
80511;BME280;69840;53.040;8.600;2023-06-19T11:48:41;101294.38;;;24.38;53.18
80511;BME280;69840;53.040;8.600;2023-06-19T11:52:56;101289.19;;;25.15;50.94
80511;BME280;69840;53.040;8.600;2023-06-19T11:57:09;101302.31;;;25.07;50.76
80511;BME280;69840;53.040;8.600;2023-06-19T12:01:22;101304.88;;;25.35;49.20
80511;BME280;69840;53.040;8.600;2023-06-19T12:05:36;101315.41;;;25.32;50.18
80511;BME280;69840;53.040;8.600;2023-06-19T12:09:49;101313.41;;;24.60;52.21
80511;BME280;69840;53.040;8.600;2023-06-19T12:14:02;101310.63;;;24.89;51.99
80511;BME280;69840;53.040;8.600;2023-06-19T12:18:14;101307.69;;;24.90;52.23
80511;BME280;69840;53.040;8.600;2023-06-19T12:22:27;101314.88;;;24.96;51.90
80511;BME280;69840;53.040;8.600;2023-06-19T12:26:40;101313.09;;;24.73;53.17
80511;BME280;69840;53.040;8.600;2023-06-19T12:30:53;101314.38;;;24.99;51.14
80511;BME280;69840;53.040;8.600;2023-06-19T12:35:06;101309.34;;;25.25;50.69
80511;BME280;69840;53.040;8.600;2023-06-19T12:39:19;101312.00;;;25.58;49.73
80511;BME280;69840;53.040;8.600;2023-06-19T12:43:33;101307.50;;;25.85;49.91
80511;BME280;69840;53.040;8.600;2023-06-19T12:47:45;101305.75;;;25.96;49.39
80511;BME280;69840;53.040;8.600;2023-06-19T12:51:58;101315.22;;;26.20;49.07
80511;BME280;69840;53.040;8.600;2023-06-19T12:56:11;101308.06;;;27.22;46.15
80511;BME280;69840;53.040;8.600;2023-06-19T13:00:25;101311.69;;;27.90;43.63
80511;BME280;69840;53.040;8.600;2023-06-19T13:04:38;101314.06;;;27.76;43.17
80511;BME280;69840;53.040;8.600;2023-06-19T13:08:51;101299.22;;;27.47;45.58
80511;BME280;69840;53.040;8.600;2023-06-19T13:13:04;101306.47;;;29.02;42.80
80511;BME280;69840;53.040;8.600;2023-06-19T13:17:16;101307.22;;;29.32;42.71
80511;BME280;69840;53.040;8.600;2023-06-19T13:21:29;101305.09;;;29.09;42.17
80511;BME280;69840;53.040;8.600;2023-06-19T13:25:42;101311.38;;;28.79;40.74
80511;BME280;69840;53.040;8.600;2023-06-19T13:29:55;101306.44;;;30.12;41.39
80511;BME280;69840;53.040;8.600;2023-06-19T13:34:08;101313.41;;;30.33;38.62
80511;BME280;69840;53.040;8.600;2023-06-19T13:38:20;101303.09;;;30.64;37.02
80511;BME280;69840;53.040;8.600;2023-06-19T13:42:33;101294.88;;;31.32;40.34
80511;BME280;69840;53.040;8.600;2023-06-19T13:46:47;101298.34;;;31.85;36.21
80511;BME280;69840;53.040;8.600;2023-06-19T13:51:00;101303.88;;;31.32;34.89
80511;BME280;69840;53.040;8.600;2023-06-19T13:55:13;101300.53;;;32.26;37.83
80511;BME280;69840;53.040;8.600;2023-06-19T13:59:27;101298.75;;;32.54;34.13
80511;BME280;69840;53.040;8.600;2023-06-19T14:03:40;101308.50;;;30.30;39.41
80511;BME280;69840;53.040;8.600;2023-06-19T14:07:54;101294.09;;;31.74;33.76
80511;BME280;69840;53.040;8.600;2023-06-19T14:12:07;101292.41;;;32.72;34.22
80511;BME280;69840;53.040;8.600;2023-06-19T14:16:20;101303.13;;;33.61;29.84
80511;BME280;69840;53.040;8.600;2023-06-19T14:20:34;101297.63;;;32.17;32.82
80511;BME280;69840;53.040;8.600;2023-06-19T14:24:50;101302.25;;;31.79;31.29
80511;BME280;69840;53.040;8.600;2023-06-19T14:29:03;101310.47;;;31.50;30.79
80511;BME280;69840;53.040;8.600;2023-06-19T14:33:16;101307.44;;;31.99;29.97
80511;BME280;69840;53.040;8.600;2023-06-19T14:37:29;101309.81;;;31.11;32.82
80511;BME280;69840;53.040;8.600;2023-06-19T14:41:42;101308.16;;;31.15;33.40
80511;BME280;69840;53.040;8.600;2023-06-19T14:45:55;101317.41;;;31.90;32.69
80511;BME280;69840;53.040;8.600;2023-06-19T14:50:08;101306.31;;;33.22;29.83
80511;BME280;69840;53.040;8.600;2023-06-19T14:54:21;101305.34;;;34.00;30.99
80511;BME280;69840;53.040;8.600;2023-06-19T14:58:34;101299.16;;;34.44;28.50
80511;BME280;69840;53.040;8.600;2023-06-19T15:02:47;101305.78;;;33.52;30.06
80511;BME280;69840;53.040;8.600;2023-06-19T15:07:00;101309.00;;;32.43;31.60
80511;BME280;69840;53.040;8.600;2023-06-19T15:11:12;101312.69;;;33.77;28.69
80511;BME280;69840;53.040;8.600;2023-06-19T15:15:25;101311.25;;;33.66;28.05
80511;BME280;69840;53.040;8.600;2023-06-19T15:19:38;101317.84;;;31.97;31.21
80511;BME280;69840;53.040;8.600;2023-06-19T15:23:54;101313.75;;;31.28;32.10
80511;BME280;69840;53.040;8.600;2023-06-19T15:28:07;101303.38;;;32.16;32.17
80511;BME280;69840;53.040;8.600;2023-06-19T15:32:20;101300.91;;;32.19;30.61
80511;BME280;69840;53.040;8.600;2023-06-19T15:36:33;101300.34;;;30.69;33.95
80511;BME280;69840;53.040;8.600;2023-06-19T15:40:46;101300.25;;;31.13;33.06
80511;BME280;69840;53.040;8.600;2023-06-19T15:44:59;101304.53;;;30.51;34.73
80511;BME280;69840;53.040;8.600;2023-06-19T15:49:12;101295.47;;;30.61;34.67
80511;BME280;69840;53.040;8.600;2023-06-19T15:53:25;101301.66;;;30.72;33.39
80511;BME280;69840;53.040;8.600;2023-06-19T15:57:38;101299.34;;;30.89;35.49
80511;BME280;69840;53.040;8.600;2023-06-19T16:01:51;101295.78;;;30.15;33.69
80511;BME280;69840;53.040;8.600;2023-06-19T16:06:03;101303.34;;;29.69;36.48
80511;BME280;69840;53.040;8.600;2023-06-19T16:10:19;101298.13;;;30.32;33.12
80511;BME280;69840;53.040;8.600;2023-06-19T16:14:32;101292.88;;;31.09;32.33
80511;BME280;69840;53.040;8.600;2023-06-19T16:18:44;101299.28;;;30.21;35.58
80511;BME280;69840;53.040;8.600;2023-06-19T16:22:57;101297.94;;;29.49;36.52
80511;BME280;69840;53.040;8.600;2023-06-19T16:27:10;101306.75;;;30.05;35.50
80511;BME280;69840;53.040;8.600;2023-06-19T16:31:23;101305.34;;;29.43;34.77
80511;BME280;69840;53.040;8.600;2023-06-19T16:35:35;101315.00;;;29.85;35.34
80511;BME280;69840;53.040;8.600;2023-06-19T16:39:48;101319.22;;;30.60;36.03
80511;BME280;69840;53.040;8.600;2023-06-19T16:44:01;101317.22;;;27.58;41.69
80511;BME280;69840;53.040;8.600;2023-06-19T16:48:13;101314.66;;;27.83;42.18
80511;BME280;69840;53.040;8.600;2023-06-19T16:52:26;101310.78;;;26.90;42.51
80511;BME280;69840;53.040;8.600;2023-06-19T16:56:39;101307.03;;;26.37;41.87
80511;BME280;69840;53.040;8.600;2023-06-19T17:00:52;101314.81;;;26.07;45.24
80511;BME280;69840;53.040;8.600;2023-06-19T17:05:05;101311.78;;;25.43;50.28
80511;BME280;69840;53.040;8.600;2023-06-19T17:09:18;101311.47;;;25.78;47.42
80511;BME280;69840;53.040;8.600;2023-06-19T17:13:31;101320.41;;;25.78;47.45
80511;BME280;69840;53.040;8.600;2023-06-19T17:17:44;101315.22;;;24.71;50.36
80511;BME280;69840;53.040;8.600;2023-06-19T17:21:57;101320.59;;;25.16;49.35
80511;BME280;69840;53.040;8.600;2023-06-19T17:26:09;101314.81;;;25.46;45.38
80511;BME280;69840;53.040;8.600;2023-06-19T17:30:22;101325.53;;;25.58;44.62
80511;BME280;69840;53.040;8.600;2023-06-19T17:34:35;101334.75;;;25.40;43.89
80511;BME280;69840;53.040;8.600;2023-06-19T17:38:48;101338.16;;;25.14;46.71
80511;BME280;69840;53.040;8.600;2023-06-19T17:43:01;101341.19;;;25.01;45.41
80511;BME280;69840;53.040;8.600;2023-06-19T17:47:14;101345.09;;;25.27;45.75
80511;BME280;69840;53.040;8.600;2023-06-19T17:51:27;101352.97;;;25.45;47.82
80511;BME280;69840;53.040;8.600;2023-06-19T17:55:39;101347.72;;;25.38;44.81
80511;BME280;69840;53.040;8.600;2023-06-19T17:59:52;101350.88;;;25.52;46.12
80511;BME280;69840;53.040;8.600;2023-06-19T18:04:05;101352.31;;;25.21;44.68
80511;BME280;69840;53.040;8.600;2023-06-19T18:08:18;101353.38;;;25.03;47.17
80511;BME280;69840;53.040;8.600;2023-06-19T18:12:31;101359.22;;;24.95;47.46
80511;BME280;69840;53.040;8.600;2023-06-19T18:16:43;101361.09;;;24.66;47.25
80511;BME280;69840;53.040;8.600;2023-06-19T18:20:56;101372.94;;;24.48;49.71
80511;BME280;69840;53.040;8.600;2023-06-19T18:25:09;101361.53;;;24.46;46.46
80511;BME280;69840;53.040;8.600;2023-06-19T18:29:22;101354.81;;;24.21;46.84
80511;BME280;69840;53.040;8.600;2023-06-19T18:33:35;101364.75;;;23.92;47.94
80511;BME280;69840;53.040;8.600;2023-06-19T18:37:47;101369.56;;;23.78;49.91
80511;BME280;69840;53.040;8.600;2023-06-19T18:42:00;101378.03;;;23.70;48.49
80511;BME280;69840;53.040;8.600;2023-06-19T18:46:13;101375.66;;;23.38;50.27
80511;BME280;69840;53.040;8.600;2023-06-19T18:50:26;101381.50;;;23.35;49.51
80511;BME280;69840;53.040;8.600;2023-06-19T18:54:39;101383.97;;;23.25;52.08
80511;BME280;69840;53.040;8.600;2023-06-19T18:58:51;101386.66;;;23.14;50.94
80511;BME280;69840;53.040;8.600;2023-06-19T19:03:04;101392.06;;;22.84;52.56
80511;BME280;69840;53.040;8.600;2023-06-19T19:07:17;101395.75;;;22.71;52.55
80511;BME280;69840;53.040;8.600;2023-06-19T19:11:29;101396.69;;;22.65;52.86
80511;BME280;69840;53.040;8.600;2023-06-19T19:15:42;101394.28;;;22.57;55.15
80511;BME280;69840;53.040;8.600;2023-06-19T19:19:55;101401.22;;;22.34;53.57
80511;BME280;69840;53.040;8.600;2023-06-19T19:24:08;101400.91;;;22.24;53.80
80511;BME280;69840;53.040;8.600;2023-06-19T19:28:21;101415.16;;;22.13;59.35
80511;BME280;69840;53.040;8.600;2023-06-19T19:32:34;101421.16;;;21.90;56.90
80511;BME280;69840;53.040;8.600;2023-06-19T19:36:47;101427.50;;;21.78;57.07
80511;BME280;69840;53.040;8.600;2023-06-19T19:41:00;101419.72;;;21.69;55.94
80511;BME280;69840;53.040;8.600;2023-06-19T19:45:13;101421.09;;;21.54;60.94
80511;BME280;69840;53.040;8.600;2023-06-19T19:49:26;101420.66;;;21.32;56.57
80511;BME280;69840;53.040;8.600;2023-06-19T19:53:38;101429.22;;;21.16;57.22
80511;BME280;69840;53.040;8.600;2023-06-19T19:57:52;101425.59;;;21.04;58.47
80511;BME280;69840;53.040;8.600;2023-06-19T20:02:05;101431.66;;;20.92;58.80
80511;BME280;69840;53.040;8.600;2023-06-19T20:06:18;101428.66;;;20.76;59.08
80511;BME280;69840;53.040;8.600;2023-06-19T20:10:31;101440.44;;;20.68;62.21
80511;BME280;69840;53.040;8.600;2023-06-19T20:14:43;101447.34;;;20.57;63.90
80511;BME280;69840;53.040;8.600;2023-06-19T20:18:56;101454.41;;;20.39;62.52
80511;BME280;69840;53.040;8.600;2023-06-19T20:23:09;101463.09;;;20.27;64.17
80511;BME280;69840;53.040;8.600;2023-06-19T20:27:22;101473.88;;;20.14;61.35
80511;BME280;69840;53.040;8.600;2023-06-19T20:31:34;101471.00;;;20.09;64.71
80511;BME280;69840;53.040;8.600;2023-06-19T20:35:47;101468.50;;;20.01;64.81
80511;BME280;69840;53.040;8.600;2023-06-19T20:40:00;101470.41;;;19.94;65.28
80511;BME280;69840;53.040;8.600;2023-06-19T20:44:12;101471.44;;;19.86;67.82
80511;BME280;69840;53.040;8.600;2023-06-19T20:48:27;101480.31;;;19.80;65.04
80511;BME280;69840;53.040;8.600;2023-06-19T20:52:39;101473.91;;;19.75;65.01
80511;BME280;69840;53.040;8.600;2023-06-19T20:56:52;101472.47;;;19.72;66.21
80511;BME280;69840;53.040;8.600;2023-06-19T21:01:05;101480.91;;;19.69;67.02
80511;BME280;69840;53.040;8.600;2023-06-19T21:05:17;101489.00;;;19.63;67.94
80511;BME280;69840;53.040;8.600;2023-06-19T21:09:30;101494.13;;;19.57;67.97
80511;BME280;69840;53.040;8.600;2023-06-19T21:13:43;101490.41;;;19.52;68.40
80511;BME280;69840;53.040;8.600;2023-06-19T21:17:55;101496.56;;;19.46;67.30
80511;BME280;69840;53.040;8.600;2023-06-19T21:22:08;101500.25;;;19.38;68.34
80511;BME280;69840;53.040;8.600;2023-06-19T21:26:20;101501.72;;;19.34;71.11
80511;BME280;69840;53.040;8.600;2023-06-19T21:30:33;101515.50;;;19.18;70.23
80511;BME280;69840;53.040;8.600;2023-06-19T21:34:45;101516.28;;;19.12;71.60
80511;BME280;69840;53.040;8.600;2023-06-19T21:38:58;101518.94;;;19.05;71.99
80511;BME280;69840;53.040;8.600;2023-06-19T21:43:10;101526.97;;;19.05;72.64
80511;BME280;69840;53.040;8.600;2023-06-19T21:47:23;101514.00;;;19.09;72.14
80511;BME280;69840;53.040;8.600;2023-06-19T21:51:35;101517.94;;;19.13;72.88
80511;BME280;69840;53.040;8.600;2023-06-19T21:55:48;101514.63;;;19.11;72.77
80511;BME280;69840;53.040;8.600;2023-06-19T22:00:02;101518.34;;;19.10;73.22
80511;BME280;69840;53.040;8.600;2023-06-19T22:04:16;101515.66;;;19.03;73.57
80511;BME280;69840;53.040;8.600;2023-06-19T22:08:28;101516.88;;;19.01;72.90
80511;BME280;69840;53.040;8.600;2023-06-19T22:12:49;101509.00;;;18.92;73.42